Time;durP1;ratioP1;P1;durP2;ratioP2;P2;SDS_P1;SDS_P2;PMS_P1;PMS_P2;Temp;Humidity;BMP_temperature;BMP_pressure;BME280_temperature;BME280_humidity;BME280_pressure;Samples;Min_cycle;Max_cycle;Signal;HPM_P1;HPM_P2
2022/08/24 00:02:19;;;;;;;12.70;11.45;;;;;;;;;;4874024;29;20059;-69
2022/08/24 00:04:46;;;;;;;12.15;11.25;;;;;;;;;;4875585;29;20761;-69
2022/08/24 00:07:12;;;;;;;12.30;11.30;;;;;;;;;;4877574;29;20481;-69
2022/08/24 00:09:37;;;;;;;12.38;11.48;;;;;;;;;;4878079;29;20111;-69
2022/08/24 00:12:03;;;;;;;12.90;11.80;;;;;;;;;;4874805;29;20037;-69
2022/08/24 00:14:30;;;;;;;13.05;11.85;;;;;;;;;;4877514;29;20104;-69
2022/08/24 00:16:57;;;;;;;12.65;11.68;;;;;;;;;;4876057;29;20032;-69
2022/08/24 00:19:23;;;;;;;13.15;12.05;;;;;;;;;;4880703;29;20060;-69
2022/08/24 00:21:50;;;;;;;12.80;11.80;;;;;;;;;;4874587;29;20493;-69
2022/08/24 00:24:15;;;;;;;12.85;11.60;;;;;;;;;;4873967;29;20084;-69
2022/08/24 00:26:41;;;;;;;12.93;11.85;;;;;;;;;;4874668;29;20036;-69
2022/08/24 00:29:07;;;;;;;13.20;11.93;;;;;;;;;;4873038;29;20120;-69
2022/08/24 00:31:32;;;;;;;12.77;11.73;;;;;;;;;;4891340;29;20108;-69
2022/08/24 00:33:58;;;;;;;13.52;12.35;;;;;;;;;;4888579;29;20041;-69
2022/08/24 00:36:24;;;;;;;13.00;11.77;;;;;;;;;;4880218;29;20072;-69
2022/08/24 00:38:50;;;;;;;13.25;12.05;;;;;;;;;;4890870;29;20056;-69
2022/08/24 00:41:17;;;;;;;15.70;12.98;;;;;;;;;;4881509;29;20029;-69
2022/08/24 00:43:54;;;;;;;13.77;12.43;;;;;;;;;;4878862;29;20127;-70
2022/08/24 00:46:36;;;;;;;13.10;12.02;;;;;;;;;;4872957;29;20135;-70
2022/08/24 00:49:05;;;;;;;13.93;12.70;;;;;;;;;;4875637;29;20044;-69
2022/08/24 00:51:50;;;;;;;14.05;12.55;;;;;;;;;;4889323;29;20122;-70
2022/08/24 00:54:17;;;;;;;13.10;12.20;;;;;;;;;;4873834;29;20061;-70
2022/08/24 00:56:55;;;;;;;14.98;13.45;;;;;;;;;;4874280;29;20382;-70
2022/08/24 00:59:24;;;;;;;14.60;13.10;;;;;;;;;;4889223;29;20489;-70
2022/08/24 01:01:52;;;;;;;14.45;13.27;;;;;;;;;;4871233;29;20493;-69
2022/08/24 01:04:27;;;;;;;14.20;12.75;;;;;;;;;;4876538;29;20033;-69
2022/08/24 01:06:55;;;;;;;13.90;12.80;;;;;;;;;;4873920;29;20052;-69
2022/08/24 01:09:21;;;;;;;15.20;12.55;;;;;;;;;;4892173;29;20061;-69
2022/08/24 01:11:48;;;;;;;14.98;13.65;;;;;;;;;;4890984;29;20045;-69
2022/08/24 01:14:19;;;;;;;14.40;13.30;;;;;;;;;;4874184;29;20044;-69
2022/08/24 01:19:37;;;;;;;15.18;13.60;;;;;;;;;;4878704;29;20115;-69
2022/08/24 01:22:29;;;;;;;14.77;13.32;;;;;;;;;;4873805;29;20107;-69
2022/08/24 01:24:56;;;;;;;14.48;13.25;;;;;;;;;;4883293;29;20644;-69
2022/08/24 01:27:22;;;;;;;15.00;13.70;;;;;;;;;;4870797;29;20037;-69
2022/08/24 01:29:48;;;;;;;15.07;13.63;;;;;;;;;;4873657;29;20076;-69
2022/08/24 01:32:15;;;;;;;14.85;13.48;;;;;;;;;;4874490;29;20393;-69
2022/08/24 01:34:41;;;;;;;14.80;13.40;;;;;;;;;;4869144;29;20525;-69
2022/08/24 01:37:09;;;;;;;14.82;13.27;;;;;;;;;;4879539;29;20024;-69
2022/08/24 01:39:41;;;;;;;14.55;13.27;;;;;;;;;;4888660;29;20037;-69
2022/08/24 01:42:08;;;;;;;14.25;13.05;;;;;;;;;;4874120;29;20387;-69
2022/08/24 01:44:36;;;;;;;15.00;13.50;;;;;;;;;;4884902;29;20056;-69
2022/08/24 01:47:05;;;;;;;14.30;13.20;;;;;;;;;;4893132;29;20116;-69
2022/08/24 01:49:36;;;;;;;14.35;13.25;;;;;;;;;;4873799;29;20041;-69
2022/08/24 01:52:05;;;;;;;15.38;14.07;;;;;;;;;;4888010;29;20037;-69
2022/08/24 01:54:31;;;;;;;15.50;13.75;;;;;;;;;;4873875;29;20037;-69
2022/08/24 01:56:58;;;;;;;14.55;13.45;;;;;;;;;;4896748;29;20172;-69
2022/08/24 01:59:25;;;;;;;14.15;12.73;;;;;;;;;;4877547;29;20505;-69
2022/08/24 02:01:55;;;;;;;13.88;12.70;;;;;;;;;;4885532;29;20402;-69
2022/08/24 02:04:21;;;;;;;14.40;12.77;;;;;;;;;;4870135;29;20033;-68
2022/08/24 02:06:47;;;;;;;14.25;13.00;;;;;;;;;;4872825;29;20626;-69
2022/08/24 02:09:14;;;;;;;13.70;12.60;;;;;;;;;;4871256;29;20375;-69
2022/08/24 02:11:41;;;;;;;13.98;12.93;;;;;;;;;;4876730;29;20036;-69
2022/08/24 02:14:10;;;;;;;13.93;12.73;;;;;;;;;;4875665;29;20124;-69
2022/08/24 02:16:36;;;;;;;15.02;13.43;;;;;;;;;;4875176;29;20090;-69
2022/08/24 02:19:02;;;;;;;13.50;12.50;;;;;;;;;;4857193;29;20040;-69
2022/08/24 02:21:28;;;;;;;14.00;12.70;;;;;;;;;;4872541;29;20052;-69
2022/08/24 02:23:54;;;;;;;14.27;13.07;;;;;;;;;;4876499;29;20039;-69
2022/08/24 02:26:20;;;;;;;14.48;13.27;;;;;;;;;;4884514;29;20071;-70
2022/08/24 02:28:46;;;;;;;13.40;12.23;;;;;;;;;;4888155;29;20070;-69
2022/08/24 02:31:13;;;;;;;14.10;13.00;;;;;;;;;;4878143;29;20065;-70
2022/08/24 02:33:40;;;;;;;14.27;12.98;;;;;;;;;;4886261;29;20049;-70
2022/08/24 02:36:08;;;;;;;14.43;13.13;;;;;;;;;;4888276;29;20052;-69
2022/08/24 02:38:34;;;;;;;15.20;13.73;;;;;;;;;;4885787;29;20501;-70
2022/08/24 02:41:02;;;;;;;14.60;13.38;;;;;;;;;;4884792;29;20055;-69
2022/08/24 02:43:29;;;;;;;14.25;13.15;;;;;;;;;;4878646;29;20112;-70
2022/08/24 02:45:55;;;;;;;14.38;13.07;;;;;;;;;;4892315;29;20172;-69
2022/08/24 02:48:22;;;;;;;14.60;13.30;;;;;;;;;;4886140;29;20045;-69
2022/08/24 02:50:50;;;;;;;15.23;14.00;;;;;;;;;;4886336;29;20060;-69
2022/08/24 02:53:18;;;;;;;15.20;13.83;;;;;;;;;;4871995;29;20033;-68
2022/08/24 02:55:44;;;;;;;14.95;13.57;;;;;;;;;;4882354;29;20382;-69
2022/08/24 02:58:15;;;;;;;14.90;13.85;;;;;;;;;;4871667;29;20042;-69
2022/08/24 03:00:43;;;;;;;15.02;13.63;;;;;;;;;;4885930;29;20142;-69
2022/08/24 03:03:10;;;;;;;14.85;13.75;;;;;;;;;;4891083;29;20040;-69
2022/08/24 03:05:36;;;;;;;15.13;13.85;;;;;;;;;;4873692;29;20035;-69
2022/08/24 03:08:02;;;;;;;16.05;14.63;;;;;;;;;;4875444;29;20044;-69
2022/08/24 03:10:29;;;;;;;15.13;13.82;;;;;;;;;;4889363;29;20051;-69
2022/08/24 03:12:58;;;;;;;14.68;13.57;;;;;;;;;;4887716;29;20041;-69
2022/08/24 03:15:23;;;;;;;16.00;14.60;;;;;;;;;;4886602;29;20521;-69
2022/08/24 03:17:50;;;;;;;16.02;14.75;;;;;;;;;;4874838;29;20059;-69
2022/08/24 03:20:19;;;;;;;16.35;15.05;;;;;;;;;;4873683;29;20052;-69
2022/08/24 03:22:45;;;;;;;15.23;14.02;;;;;;;;;;4888506;29;20052;-69
2022/08/24 03:25:13;;;;;;;15.57;14.27;;;;;;;;;;4879293;29;20500;-69
2022/08/24 03:27:39;;;;;;;16.45;15.10;;;;;;;;;;4877962;29;20043;-69
2022/08/24 03:30:07;;;;;;;16.52;14.98;;;;;;;;;;4879729;29;20108;-69
2022/08/24 03:32:32;;;;;;;15.45;14.13;;;;;;;;;;4872080;29;20029;-69
2022/08/24 03:34:59;;;;;;;17.33;15.73;;;;;;;;;;4888515;29;20037;-69
2022/08/24 03:37:25;;;;;;;16.08;14.48;;;;;;;;;;4871282;29;20425;-69
2022/08/24 03:39:50;;;;;;;16.30;14.85;;;;;;;;;;4875368;29;20037;-69
2022/08/24 03:42:17;;;;;;;16.73;15.32;;;;;;;;;;4864796;29;20045;-68
2022/08/24 03:44:42;;;;;;;16.60;14.85;;;;;;;;;;4876679;29;20536;-68
2022/08/24 03:47:12;;;;;;;15.02;13.50;;;;;;;;;;4881443;29;20120;-69
2022/08/24 03:49:38;;;;;;;15.35;14.02;;;;;;;;;;4872452;29;20088;-69
2022/08/24 03:52:05;;;;;;;14.82;13.50;;;;;;;;;;4873558;29;20458;-69
2022/08/24 03:54:31;;;;;;;14.73;13.52;;;;;;;;;;4886346;29;20045;-69
2022/08/24 03:57:00;;;;;;;16.05;14.48;;;;;;;;;;4888297;29;20041;-68
2022/08/24 03:59:26;;;;;;;15.25;14.00;;;;;;;;;;4874901;29;20497;-69
2022/08/24 04:01:56;;;;;;;15.40;13.90;;;;;;;;;;4887658;29;20382;-68
2022/08/24 04:04:21;;;;;;;15.40;14.18;;;;;;;;;;4886158;29;20312;-69
2022/08/24 04:06:47;;;;;;;15.00;13.60;;;;;;;;;;4880673;29;20045;-69
2022/08/24 04:09:14;;;;;;;14.38;13.27;;;;;;;;;;4881265;29;20033;-69
2022/08/24 04:11:45;;;;;;;14.32;13.02;;;;;;;;;;4873163;29;20034;-68
2022/08/24 04:14:13;;;;;;;14.85;13.60;;;;;;;;;;4870628;29;20039;-68
2022/08/24 04:16:39;;;;;;;14.95;13.40;;;;;;;;;;4886796;29;20120;-71
2022/08/24 04:19:15;;;;;;;15.07;13.85;;;;;;;;;;4879687;29;20036;-70
2022/08/24 04:21:43;;;;;;;14.38;13.27;;;;;;;;;;4869305;29;20317;-71
2022/08/24 04:24:11;;;;;;;14.75;13.45;;;;;;;;;;4870402;29;21142;-70
2022/08/24 04:26:39;;;;;;;14.32;13.32;;;;;;;;;;4892072;29;20077;-70
2022/08/24 04:29:08;;;;;;;15.70;14.23;;;;;;;;;;4876999;29;20045;-69
2022/08/24 04:31:40;;;;;;;14.85;13.65;;;;;;;;;;4873388;29;20071;-67
2022/08/24 04:34:07;;;;;;;15.70;14.20;;;;;;;;;;4877163;29;20039;-68
2022/08/24 04:36:33;;;;;;;15.43;14.10;;;;;;;;;;4882656;29;20400;-67
2022/08/24 04:39:00;;;;;;;15.52;14.32;;;;;;;;;;4871478;29;20069;-67
2022/08/24 04:41:45;;;;;;;15.27;13.98;;;;;;;;;;4873066;29;20060;-67
2022/08/24 04:44:11;;;;;;;14.98;13.57;;;;;;;;;;4888295;29;20065;-67
2022/08/24 04:46:38;;;;;;;15.02;13.82;;;;;;;;;;4879836;29;20037;-69
2022/08/24 04:49:04;;;;;;;14.90;13.70;;;;;;;;;;4874192;29;20136;-69
2022/08/24 04:51:30;;;;;;;15.80;14.30;;;;;;;;;;4889717;29;20033;-69
2022/08/24 04:53:58;;;;;;;14.98;13.60;;;;;;;;;;4878433;29;20063;-69
2022/08/24 04:56:25;;;;;;;15.80;14.27;;;;;;;;;;4875176;29;20497;-69
2022/08/24 04:58:54;;;;;;;15.70;14.30;;;;;;;;;;4887817;29;20501;-69
2022/08/24 05:01:23;;;;;;;15.55;14.27;;;;;;;;;;4876388;29;20065;-70
2022/08/24 05:03:51;;;;;;;17.15;15.60;;;;;;;;;;4893250;29;20045;-70
2022/08/24 05:06:18;;;;;;;15.73;14.27;;;;;;;;;;4894758;29;20037;-69
2022/08/24 05:08:46;;;;;;;16.57;15.17;;;;;;;;;;4884294;29;20077;-70
2022/08/24 05:11:14;;;;;;;16.23;15.02;;;;;;;;;;4886656;29;20053;-70
2022/08/24 05:13:40;;;;;;;16.02;14.70;;;;;;;;;;4887581;29;20077;-70
2022/08/24 05:16:09;;;;;;;15.55;13.80;;;;;;;;;;4874248;29;20047;-70
2022/08/24 05:18:36;;;;;;;16.33;14.77;;;;;;;;;;4876935;29;20047;-69
2022/08/24 05:21:07;;;;;;;15.18;13.88;;;;;;;;;;4873983;29;20041;-69
2022/08/24 05:23:34;;;;;;;15.55;14.25;;;;;;;;;;4886642;29;20037;-69
2022/08/24 05:26:09;;;;;;;15.23;14.02;;;;;;;;;;4874003;29;20037;-69
2022/08/24 05:28:38;;;;;;;15.13;13.93;;;;;;;;;;4891342;29;20111;-70
2022/08/24 05:31:12;;;;;;;14.82;13.73;;;;;;;;;;4895260;29;21127;-69
2022/08/24 05:33:39;;;;;;;15.25;14.05;;;;;;;;;;4868450;29;20077;-70
2022/08/24 05:36:13;;;;;;;15.05;13.80;;;;;;;;;;4883048;29;20124;-70
2022/08/24 05:38:38;;;;;;;14.65;13.48;;;;;;;;;;4880800;29;20047;-70
2022/08/24 05:41:04;;;;;;;14.40;13.40;;;;;;;;;;4884481;29;20404;-70
2022/08/24 05:43:32;;;;;;;14.45;13.18;;;;;;;;;;4882300;29;20037;-70
2022/08/24 05:45:58;;;;;;;14.50;13.25;;;;;;;;;;4871801;29;20037;-70
2022/08/24 05:48:24;;;;;;;14.27;13.07;;;;;;;;;;4893854;29;20102;-69
2022/08/24 05:51:11;;;;;;;14.18;13.05;;;;;;;;;;4873816;29;20052;-70
2022/08/24 05:53:47;;;;;;;14.80;13.40;;;;;;;;;;4874947;29;20112;-69
2022/08/24 05:56:15;;;;;;;14.50;13.20;;;;;;;;;;4892052;29;20041;-70
2022/08/24 05:58:41;;;;;;;13.75;12.30;;;;;;;;;;4874544;29;20076;-70
2022/08/24 06:01:11;;;;;;;14.45;13.20;;;;;;;;;;4871778;29;20292;-70
2022/08/24 06:03:38;;;;;;;13.82;12.55;;;;;;;;;;4882751;29;20029;-70
2022/08/24 06:06:09;;;;;;;14.10;13.00;;;;;;;;;;4884767;29;20068;-70
2022/08/24 06:08:37;;;;;;;13.13;12.13;;;;;;;;;;4882962;29;20496;-70
2022/08/24 06:11:04;;;;;;;14.85;13.65;;;;;;;;;;4873110;29;20037;-70
2022/08/24 06:13:32;;;;;;;13.90;12.85;;;;;;;;;;4887105;29;20041;-69
2022/08/24 06:16:05;;;;;;;13.57;12.55;;;;;;;;;;4887939;29;20497;-70
2022/08/24 06:18:31;;;;;;;14.57;13.20;;;;;;;;;;4883766;29;20189;-70
2022/08/24 06:20:58;;;;;;;14.50;13.20;;;;;;;;;;4876412;29;20486;-69
2022/08/24 06:23:24;;;;;;;14.80;13.35;;;;;;;;;;4863218;29;20044;-70
2022/08/24 06:28:43;;;;;;;15.88;12.40;;;;;;;;;;4886125;29;20120;-69
2022/08/24 06:31:09;;;;;;;13.35;12.07;;;;;;;;;;4886531;29;20029;-70
2022/08/24 06:33:36;;;;;;;12.48;11.57;;;;;;;;;;4881707;29;20072;-70
2022/08/24 06:36:02;;;;;;;13.57;12.25;;;;;;;;;;4872331;29;20078;-70
2022/08/24 06:38:29;;;;;;;13.05;11.75;;;;;;;;;;4873679;29;20037;-70
2022/08/24 06:40:55;;;;;;;13.18;11.40;;;;;;;;;;4874924;29;20056;-70
2022/08/24 06:43:23;;;;;;;12.70;11.35;;;;;;;;;;4898677;29;20037;-70
2022/08/24 06:45:54;;;;;;;13.45;11.77;;;;;;;;;;4884015;29;20063;-70
2022/08/24 06:48:25;;;;;;;13.57;10.30;;;;;;;;;;4884136;29;20572;-70
2022/08/24 06:50:52;;;;;;;12.45;11.38;;;;;;;;;;4858564;29;20033;-70
2022/08/24 06:53:18;;;;;;;12.02;10.93;;;;;;;;;;4880193;29;20524;-70
2022/08/24 06:55:56;;;;;;;12.50;11.38;;;;;;;;;;4885816;29;20033;-70
2022/08/24 06:58:23;;;;;;;12.30;11.13;;;;;;;;;;4896424;29;20076;-70
2022/08/24 07:00:49;;;;;;;15.88;11.25;;;;;;;;;;4868746;29;20049;-70
2022/08/24 07:03:16;;;;;;;15.35;11.32;;;;;;;;;;4885604;29;20405;-70
2022/08/24 07:05:56;;;;;;;11.90;10.82;;;;;;;;;;4887474;29;20057;-70
2022/08/24 07:08:41;;;;;;;12.07;10.98;;;;;;;;;;4887967;29;20493;-70
2022/08/24 07:11:09;;;;;;;11.55;10.55;;;;;;;;;;4886242;29;20036;-70
2022/08/24 07:13:34;;;;;;;11.80;10.70;;;;;;;;;;4888756;29;20331;-70
2022/08/24 07:16:01;;;;;;;12.25;11.15;;;;;;;;;;4873369;29;20493;-69
2022/08/24 07:18:27;;;;;;;12.05;10.90;;;;;;;;;;4888411;29;20128;-70
2022/08/24 07:20:54;;;;;;;12.05;10.95;;;;;;;;;;4872617;29;20071;-70
2022/08/24 07:23:36;;;;;;;11.63;10.73;;;;;;;;;;4882914;29;20116;-70
2022/08/24 07:26:18;;;;;;;11.65;10.63;;;;;;;;;;4887900;29;20085;-70
2022/08/24 07:28:44;;;;;;;12.63;11.48;;;;;;;;;;4874841;29;20515;-70
2022/08/24 07:31:12;;;;;;;11.73;10.85;;;;;;;;;;4869925;29;20033;-70
2022/08/24 07:33:44;;;;;;;11.48;10.35;;;;;;;;;;4886236;29;20037;-70
2022/08/24 07:36:09;;;;;;;11.18;10.13;;;;;;;;;;4872966;29;20584;-70
2022/08/24 07:38:36;;;;;;;11.70;10.80;;;;;;;;;;4877282;29;20123;-70
2022/08/24 07:41:01;;;;;;;11.38;10.52;;;;;;;;;;4871736;29;20120;-70
2022/08/24 07:43:28;;;;;;;11.90;10.70;;;;;;;;;;4872579;29;20041;-70
2022/08/24 07:45:54;;;;;;;11.00;10.23;;;;;;;;;;4872743;29;20119;-70
2022/08/24 07:48:21;;;;;;;10.95;9.95;;;;;;;;;;4872713;29;20065;-70
2022/08/24 07:50:47;;;;;;;11.60;10.60;;;;;;;;;;4885035;29;20124;-70
2022/08/24 07:53:14;;;;;;;10.63;9.80;;;;;;;;;;4867021;29;20635;-71
2022/08/24 07:55:39;;;;;;;11.23;10.27;;;;;;;;;;4870368;29;20033;-70
2022/08/24 07:58:05;;;;;;;10.63;9.68;;;;;;;;;;4886108;29;20144;-70
2022/08/24 08:00:31;;;;;;;10.73;9.90;;;;;;;;;;4883584;29;20116;-70
2022/08/24 08:03:02;;;;;;;10.88;9.90;;;;;;;;;;4887997;29;20045;-70
2022/08/24 08:05:29;;;;;;;11.88;10.38;;;;;;;;;;4884451;29;20029;-70
2022/08/24 08:07:55;;;;;;;10.35;9.50;;;;;;;;;;4886779;29;20108;-70
2022/08/24 08:10:22;;;;;;;10.27;9.27;;;;;;;;;;4874416;29;20592;-70
2022/08/24 08:12:48;;;;;;;9.65;8.95;;;;;;;;;;4888176;29;20093;-71
2022/08/24 08:15:14;;;;;;;9.93;9.13;;;;;;;;;;4873534;29;20056;-70
2022/08/24 08:17:50;;;;;;;10.05;9.20;;;;;;;;;;4883581;29;20049;-70
2022/08/24 08:20:16;;;;;;;9.48;8.70;;;;;;;;;;4872967;29;20089;-69
2022/08/24 08:26:02;;;;;;;9.35;8.45;;;;;;;;;;4871481;29;20040;-69
2022/08/24 08:28:41;;;;;;;9.35;8.55;;;;;;;;;;4887394;29;20040;-70
2022/08/24 08:31:06;;;;;;;12.02;8.95;;;;;;;;;;4875120;29;20545;-70
2022/08/24 08:33:34;;;;;;;8.68;8.07;;;;;;;;;;4894561;29;20128;-70
2022/08/24 08:36:06;;;;;;;9.55;8.60;;;;;;;;;;4885463;29;20517;-70
2022/08/24 08:38:34;;;;;;;9.40;8.60;;;;;;;;;;4890537;29;20042;-70
2022/08/24 08:41:17;;;;;;;8.57;7.90;;;;;;;;;;4876493;29;20049;-70
2022/08/24 08:44:16;;;;;;;8.73;7.88;;;;;;;;;;4873876;29;20126;-70
2022/08/24 08:47:00;;;;;;;9.65;7.75;;;;;;;;;;4881148;29;20044;-71
2022/08/24 08:49:34;;;;;;;8.80;8.15;;;;;;;;;;4889332;29;20056;-70
2022/08/24 08:52:23;;;;;;;9.48;8.20;;;;;;;;;;4893785;29;20092;-70
2022/08/24 08:55:00;;;;;;;9.45;8.43;;;;;;;;;;4878306;29;20100;-70
2022/08/24 08:57:44;;;;;;;9.02;8.15;;;;;;;;;;4879639;29;20098;-71
2022/08/24 09:00:54;;;;;;;9.05;8.13;;;;;;;;;;4874969;29;20041;-70
2022/08/24 09:03:49;;;;;;;8.82;8.23;;;;;;;;;;4855130;29;20060;-69
2022/08/24 09:06:44;;;;;;;8.65;8.10;;;;;;;;;;4870962;29;20051;-69
2022/08/24 09:09:20;;;;;;;8.23;7.72;;;;;;;;;;4890487;29;20049;-69
2022/08/24 09:12:17;;;;;;;10.38;7.82;;;;;;;;;;4873958;29;20029;-70
2022/08/24 09:14:49;;;;;;;8.82;8.13;;;;;;;;;;4869934;29;20052;-70
2022/08/24 09:17:42;;;;;;;8.98;8.27;;;;;;;;;;4875187;29;20481;-69
2022/08/24 09:20:21;;;;;;;9.57;8.77;;;;;;;;;;4876657;29;20453;-69
2022/08/24 09:23:00;;;;;;;;;;;;;;;;;;4896547;29;20489;-70
2022/08/24 09:26:28;;;;;;;9.13;8.40;;;;;;;;;;4887015;29;20384;-70
2022/08/24 09:29:22;;;;;;;9.35;8.07;;;;;;;;;;4834105;29;20050;-69
2022/08/24 09:31:47;;;;;;;8.52;8.00;;;;;;;;;;4834552;29;20308;-70
2022/08/24 09:34:34;;;;;;;9.10;8.50;;;;;;;;;;4834224;29;20560;-70
2022/08/24 09:37:15;;;;;;;8.80;8.20;;;;;;;;;;4831672;29;20030;-70
2022/08/24 09:40:16;;;;;;;8.60;7.90;;;;;;;;;;4833799;29;20058;-70
2022/08/24 09:43:02;;;;;;;8.63;7.93;;;;;;;;;;4828523;29;20037;-70
2022/08/24 09:45:34;;;;;;;8.38;7.78;;;;;;;;;;4827009;29;20045;-69
2022/08/24 09:48:08;;;;;;;8.88;8.15;;;;;;;;;;4834721;29;20042;-70
2022/08/24 09:51:05;;;;;;;8.20;7.50;;;;;;;;;;4834931;29;20425;-70
2022/08/24 09:53:42;;;;;;;8.77;8.05;;;;;;;;;;4830459;29;20065;-69
2022/08/24 09:56:27;;;;;;;8.13;7.63;;;;;;;;;;4831244;29;20049;-70
2022/08/24 09:59:17;;;;;;;7.95;7.35;;;;;;;;;;4835944;29;20708;-70
2022/08/24 10:02:07;;;;;;;7.70;7.20;;;;;;;;;;4835446;29;20042;-70
2022/08/24 10:04:43;;;;;;;7.88;7.38;;;;;;;;;;4849037;29;20383;-70
2022/08/24 10:07:21;;;;;;;8.52;7.85;;;;;;;;;;4873531;29;20068;-70
2022/08/24 10:09:49;;;;;;;8.32;7.55;;;;;;;;;;4857933;29;20454;-70
2022/08/24 10:12:24;;;;;;;8.10;7.40;;;;;;;;;;4872074;29;20035;-70
2022/08/24 10:15:04;;;;;;;7.65;6.93;;;;;;;;;;4870852;29;20131;-69
2022/08/24 10:17:57;;;;;;;7.70;7.20;;;;;;;;;;4875247;29;20041;-69
2022/08/24 10:20:24;;;;;;;7.78;7.38;;;;;;;;;;4878914;29;20040;-70
2022/08/24 10:23:26;;;;;;;7.88;7.25;;;;;;;;;;4871548;29;20041;-70
2022/08/24 10:26:06;;;;;;;7.47;6.97;;;;;;;;;;4872065;29;20045;-70
2022/08/24 10:28:50;;;;;;;7.78;7.35;;;;;;;;;;4870205;29;20044;-70
2022/08/24 10:32:05;;;;;;;8.27;7.68;;;;;;;;;;4866438;29;20024;-70
2022/08/24 10:34:53;;;;;;;9.07;8.38;;;;;;;;;;4829717;29;20485;-70
2022/08/24 10:37:42;;;;;;;8.48;7.78;;;;;;;;;;4825576;29;20921;-70
2022/08/24 10:40:26;;;;;;;8.05;7.35;;;;;;;;;;4828730;29;20048;-70
2022/08/24 10:43:34;;;;;;;8.23;7.72;;;;;;;;;;4833205;29;20148;-70
2022/08/24 10:46:33;;;;;;;8.25;7.65;;;;;;;;;;4828598;29;20157;-72
2022/08/24 10:49:35;;;;;;;7.72;7.30;;;;;;;;;;4830516;29;20090;-70
2022/08/24 10:52:35;;;;;;;8.13;7.45;;;;;;;;;;4835882;29;20047;-69
2022/08/24 10:55:19;;;;;;;8.00;7.50;;;;;;;;;;4830122;29;20616;-70
2022/08/24 10:58:15;;;;;;;8.20;7.70;;;;;;;;;;4833861;29;20165;-69
2022/08/24 11:00:41;;;;;;;8.32;7.60;;;;;;;;;;4760609;30;20040;-70
2022/08/24 11:03:14;;;;;;;7.78;7.35;;;;;;;;;;4761776;30;20079;-69
2022/08/24 11:05:53;;;;;;;8.20;7.50;;;;;;;;;;4799779;29;20250;-70
2022/08/24 11:08:29;;;;;;;7.57;7.07;;;;;;;;;;4815228;29;20046;-70
2022/08/24 11:11:07;;;;;;;7.78;7.28;;;;;;;;;;4815952;29;20403;-70
2022/08/24 11:13:35;;;;;;;7.40;7.00;;;;;;;;;;4820577;29;20041;-70
2022/08/24 11:16:01;;;;;;;;;;;;;;;;;;4819969;29;20050;-70
2022/08/24 11:18:52;;;;;;;8.30;7.57;;;;;;;;;;4814665;29;19954;-70
2022/08/24 11:21:30;;;;;;;7.78;7.18;;;;;;;;;;4813184;29;20046;-69
2022/08/24 11:24:01;;;;;;;8.07;7.57;;;;;;;;;;4819049;29;20133;-70
2022/08/24 11:26:27;;;;;;;7.60;7.00;;;;;;;;;;4814833;29;20046;-70
2022/08/24 11:28:59;;;;;;;7.60;7.00;;;;;;;;;;4815410;29;20050;-70
2022/08/24 11:31:33;;;;;;;7.32;6.93;;;;;;;;;;4815453;29;20220;-70
2022/08/24 11:34:02;;;;;;;7.20;6.80;;;;;;;;;;4814953;29;20189;-69
2022/08/24 11:36:33;;;;;;;7.60;7.20;;;;;;;;;;4814711;29;20043;-69
2022/08/24 11:39:24;;;;;;;7.78;7.05;;;;;;;;;;4869151;29;20465;-70
2022/08/24 11:41:58;;;;;;;7.40;6.90;;;;;;;;;;4865965;29;20060;-69
2022/08/24 11:44:49;;;;;;;7.97;7.28;;;;;;;;;;4872156;29;20039;-69
2022/08/24 11:47:26;;;;;;;7.90;7.40;;;;;;;;;;4870471;29;20434;-70
2022/08/24 11:50:33;;;;;;;7.30;6.90;;;;;;;;;;4870896;29;20588;-70
2022/08/24 11:53:27;;;;;;;8.23;7.72;;;;;;;;;;4870870;29;20045;-69
2022/08/24 11:56:11;;;;;;;9.02;8.38;;;;;;;;;;4870462;29;20144;-69
2022/08/24 11:58:53;;;;;;;8.95;8.20;;;;;;;;;;4872008;29;20036;-70
2022/08/24 12:01:23;;;;;;;9.10;8.57;;;;;;;;;;4887953;29;20049;-69
2022/08/24 12:04:03;;;;;;;9.50;8.82;;;;;;;;;;4874236;29;20508;-69
2022/08/24 12:06:46;;;;;;;8.70;8.20;;;;;;;;;;4871113;29;20033;-70
2022/08/24 12:09:52;;;;;;;8.70;8.20;;;;;;;;;;4872891;29;20040;-70
2022/08/24 12:12:32;;;;;;;8.90;8.30;;;;;;;;;;4867286;29;20493;-70
2022/08/24 12:15:09;;;;;;;8.13;7.65;;;;;;;;;;4869411;29;20068;-70
2022/08/24 12:17:45;;;;;;;9.32;8.70;;;;;;;;;;4874548;29;20033;-70
2022/08/24 12:20:21;;;;;;;9.57;8.88;;;;;;;;;;4872073;29;20389;-69
2022/08/24 12:22:48;;;;;;;9.52;8.95;;;;;;;;;;4873086;29;20075;-70
2022/08/24 12:27:59;;;;;;;9.48;8.48;;;;;;;;;;4875166;29;20565;-70
2022/08/24 12:30:26;;;;;;;8.50;7.90;;;;;;;;;;4866332;29;20025;-69
2022/08/24 12:32:59;;;;;;;8.93;8.23;;;;;;;;;;4867613;29;20089;-70
2022/08/24 12:35:50;;;;;;;8.20;7.70;;;;;;;;;;4869070;29;20487;-70
2022/08/24 12:38:30;;;;;;;8.60;8.10;;;;;;;;;;4872979;29;20072;-70
2022/08/24 12:41:13;;;;;;;8.68;8.18;;;;;;;;;;4871528;29;20052;-70
2022/08/24 12:43:45;;;;;;;8.82;8.20;;;;;;;;;;4868191;29;20040;-70
2022/08/24 12:46:14;;;;;;;9.20;8.70;;;;;;;;;;4874832;29;20047;-70
2022/08/24 12:48:52;;;;;;;8.80;8.30;;;;;;;;;;4881051;29;20385;-70
2022/08/24 12:51:21;;;;;;;8.80;8.20;;;;;;;;;;4873953;29;20045;-69
2022/08/24 12:54:11;;;;;;;8.85;8.35;;;;;;;;;;4877775;29;20033;-70
2022/08/24 12:56:46;;;;;;;9.13;8.43;;;;;;;;;;4871601;29;20125;-69
2022/08/24 12:59:17;;;;;;;9.23;8.60;;;;;;;;;;4874079;29;20136;-69
2022/08/24 13:01:47;;;;;;;8.95;8.40;;;;;;;;;;4874676;29;20093;-69
2022/08/24 13:04:28;;;;;;;8.32;7.82;;;;;;;;;;4875795;29;20036;-68
2022/08/24 13:07:32;;;;;;;8.90;8.30;;;;;;;;;;4872151;29;20051;-68
2022/08/24 13:09:58;;;;;;;8.70;8.10;;;;;;;;;;4831374;29;20601;-69
2022/08/24 13:12:29;;;;;;;7.93;7.43;;;;;;;;;;4834086;29;20038;-69
2022/08/24 13:15:19;;;;;;;9.05;8.45;;;;;;;;;;4845320;29;20046;-68
2022/08/24 13:17:47;;;;;;;8.82;8.32;;;;;;;;;;4837832;29;20717;-70
2022/08/24 13:20:26;;;;;;;8.75;8.25;;;;;;;;;;4835255;29;20407;-69
2022/08/24 13:23:10;;;;;;;9.27;8.77;;;;;;;;;;4841421;29;20057;-69
2022/08/24 13:25:51;;;;;;;9.00;8.50;;;;;;;;;;4831623;29;20130;-71
2022/08/24 13:28:20;;;;;;;9.50;8.90;;;;;;;;;;4839352;29;20185;-69
2022/08/24 13:31:05;;;;;;;9.68;9.00;;;;;;;;;;4833816;29;20681;-69
2022/08/24 13:33:41;;;;;;;9.20;8.70;;;;;;;;;;4828366;29;20126;-68
2022/08/24 13:36:28;;;;;;;9.93;9.32;;;;;;;;;;4834994;29;20045;-68
2022/08/24 13:38:59;;;;;;;9.27;8.77;;;;;;;;;;4839836;29;20822;-68
2022/08/24 13:41:51;;;;;;;9.10;8.50;;;;;;;;;;4833476;29;20042;-68
2022/08/24 13:44:45;;;;;;;8.90;8.40;;;;;;;;;;4856423;29;20053;-68
2022/08/24 13:47:23;;;;;;;8.93;8.43;;;;;;;;;;4862741;29;20037;-68
2022/08/24 13:49:50;;;;;;;;;;;;;;;;;;4872735;29;20049;-68
2022/08/24 13:53:03;;;;;;;8.90;8.30;;;;;;;;;;4871728;29;20307;-70
2022/08/24 13:55:34;;;;;;;9.00;8.50;;;;;;;;;;4868285;29;20152;-68
2022/08/24 13:58:32;;;;;;;9.00;8.40;;;;;;;;;;4871058;29;21054;-69
2022/08/24 14:01:25;;;;;;;8.95;8.35;;;;;;;;;;4870947;29;20081;-69
2022/08/24 14:04:17;;;;;;;9.18;8.45;;;;;;;;;;4875976;29;20029;-69
2022/08/24 14:06:59;;;;;;;9.50;8.80;;;;;;;;;;4876188;29;20116;-69
2022/08/24 14:09:30;;;;;;;9.63;8.93;;;;;;;;;;4874742;29;20036;-68
2022/08/24 14:12:09;;;;;;;9.38;8.77;;;;;;;;;;4874870;29;20133;-69
2022/08/24 14:14:52;;;;;;;9.23;8.50;;;;;;;;;;4874265;29;20556;-69
2022/08/24 14:20:52;;;;;;;9.10;8.57;;;;;;;;;;4873130;29;20096;-68
2022/08/24 14:23:31;;;;;;;9.98;8.50;;;;;;;;;;4873760;29;20513;-68
2022/08/24 14:26:35;;;;;;;8.80;8.13;;;;;;;;;;4873345;29;20168;-69
2022/08/24 14:29:19;;;;;;;9.50;8.70;;;;;;;;;;4873132;29;20061;-68
2022/08/24 14:31:57;;;;;;;8.75;8.13;;;;;;;;;;4871742;29;20037;-69
2022/08/24 14:34:34;;;;;;;8.63;8.00;;;;;;;;;;4873291;29;20040;-68
2022/08/24 14:37:04;;;;;;;8.48;7.97;;;;;;;;;;4872497;29;20532;-68
2022/08/24 14:39:57;;;;;;;9.10;8.50;;;;;;;;;;4872203;29;20049;-68
2022/08/24 14:42:37;;;;;;;9.25;8.65;;;;;;;;;;4874406;29;20100;-68
2022/08/24 14:45:03;;;;;;;9.02;8.50;;;;;;;;;;4868884;29;20400;-68
2022/08/24 14:47:40;;;;;;;8.70;8.10;;;;;;;;;;4871279;29;20045;-68
2022/08/24 14:50:22;;;;;;;9.25;8.70;;;;;;;;;;4873833;29;20036;-68
2022/08/24 14:53:03;;;;;;;8.50;8.00;;;;;;;;;;4873843;29;20041;-68
2022/08/24 14:55:37;;;;;;;9.05;8.45;;;;;;;;;;4873340;29;20495;-68
2022/08/24 14:58:09;;;;;;;9.98;9.05;;;;;;;;;;4872652;29;20045;-68
2022/08/24 15:00:50;;;;;;;9.57;8.82;;;;;;;;;;4873884;29;20044;-67
2022/08/24 15:03:51;;;;;;;9.63;9.02;;;;;;;;;;4870042;29;20049;-68
2022/08/24 15:06:28;;;;;;;9.55;8.95;;;;;;;;;;4871267;29;20041;-68
2022/08/24 15:09:15;;;;;;;9.65;8.70;;;;;;;;;;4872680;29;20048;-68
2022/08/24 15:11:41;;;;;;;9.23;8.60;;;;;;;;;;4870899;29;20037;-68
2022/08/24 15:14:19;;;;;;;9.57;8.98;;;;;;;;;;4870150;29;20052;-67
2022/08/24 15:16:52;;;;;;;9.25;8.57;;;;;;;;;;4872053;29;20032;-69
2022/08/24 15:19:24;;;;;;;8.80;8.30;;;;;;;;;;4872090;29;20080;-69
2022/08/24 15:22:02;;;;;;;9.10;8.45;;;;;;;;;;4860235;29;20044;-69
2022/08/24 15:24:28;;;;;;;;;;;;;;;;;;4871238;29;20051;-68
2022/08/24 15:27:21;;;;;;;8.52;7.93;;;;;;;;;;4870339;29;19920;-69